createdAt,value
2018-12-18T00:00:36.372Z,16.50
2018-12-18T00:03:11.383Z,16.25
2018-12-18T00:05:39.816Z,17.45
2018-12-18T00:08:08.163Z,17.07
2018-12-18T00:10:41.761Z,16.75
2018-12-18T00:13:10.123Z,17.27
2018-12-18T00:15:38.555Z,18.27
2018-12-18T00:18:06.962Z,17.62
2018-12-18T00:20:35.312Z,16.45
2018-12-18T00:23:03.634Z,16.95
2018-12-18T00:25:32.168Z,17.35
2018-12-18T00:28:01.214Z,16.20
2018-12-18T00:30:29.550Z,16.30
2018-12-18T00:32:57.913Z,16.25
2018-12-18T00:35:26.329Z,17.32
2018-12-18T00:37:54.760Z,17.12
2018-12-18T00:40:23.288Z,17.32
2018-12-18T00:42:51.625Z,17.90
2018-12-18T00:45:20.043Z,17.10
2018-12-18T00:47:48.604Z,16.23
2018-12-18T00:50:17.072Z,18.48
2018-12-18T00:52:45.468Z,17.65
2018-12-18T00:55:13.816Z,17.55
2018-12-18T00:57:42.309Z,17.15
2018-12-18T01:00:10.936Z,18.70
2018-12-18T01:02:39.333Z,18.12
2018-12-18T01:05:07.839Z,21.40
2018-12-18T01:07:36.273Z,19.37
2018-12-18T01:10:05.489Z,19.17
2018-12-18T01:12:33.857Z,18.35
2018-12-18T01:15:02.241Z,18.85
2018-12-18T01:17:30.584Z,18.32
2018-12-18T01:19:59.014Z,18.12
2018-12-18T01:22:27.338Z,20.05
2018-12-18T01:24:56.186Z,19.07
2018-12-18T01:27:24.554Z,17.20
2018-12-18T01:29:53.030Z,17.07
2018-12-18T01:32:21.391Z,17.40
2018-12-18T01:34:49.739Z,17.60
2018-12-18T01:37:18.084Z,17.05
2018-12-18T01:39:46.871Z,17.87
2018-12-18T01:42:15.199Z,17.48
2018-12-18T01:44:44.179Z,18.42
2018-12-18T01:47:12.524Z,17.12
2018-12-18T01:49:45.009Z,16.57
2018-12-18T01:52:13.785Z,16.62
2018-12-18T01:54:42.171Z,16.30
2018-12-18T01:57:10.520Z,15.40
2018-12-18T01:59:38.873Z,14.30
2018-12-18T02:02:07.225Z,15.32
2018-12-18T02:04:35.682Z,14.73
2018-12-18T02:07:04.135Z,14.70
2018-12-18T02:09:33.763Z,17.05
2018-12-18T02:12:02.181Z,16.25
2018-12-18T02:14:30.537Z,17.02
2018-12-18T02:16:58.890Z,16.42
2018-12-18T02:19:27.285Z,16.48
2018-12-18T02:21:55.656Z,15.85
2018-12-18T02:24:23.998Z,15.78
2018-12-18T02:26:52.360Z,15.43
2018-12-18T02:29:21.331Z,15.55
2018-12-18T02:31:49.698Z,19.05
2018-12-18T02:34:19.369Z,15.20
2018-12-18T02:36:47.815Z,16.67
2018-12-18T02:39:16.195Z,16.30
2018-12-18T02:41:44.630Z,17.32
2018-12-18T02:44:13.006Z,15.78
2018-12-18T02:46:41.365Z,16.73
2018-12-18T02:49:13.933Z,16.37
2018-12-18T02:51:42.890Z,18.42
2018-12-18T02:54:11.376Z,19.07
2018-12-18T02:56:39.911Z,19.30
2018-12-18T02:59:08.296Z,19.02
2018-12-18T03:01:36.785Z,16.85
2018-12-18T03:04:05.192Z,19.30
2018-12-18T03:06:33.632Z,18.62
2018-12-18T03:09:01.991Z,20.27
2018-12-18T03:11:30.325Z,19.15
2018-12-18T03:13:59.263Z,18.98
2018-12-18T03:16:27.601Z,19.48
2018-12-18T03:18:56.058Z,19.42
2018-12-18T03:21:24.412Z,21.85
2018-12-18T03:23:52.758Z,18.70
2018-12-18T03:26:21.771Z,22.22
2018-12-18T03:28:50.157Z,21.30
2018-12-18T03:31:18.691Z,21.80
2018-12-18T03:33:47.204Z,20.75
2018-12-18T03:36:15.585Z,23.10
2018-12-18T03:38:44.077Z,21.52
2018-12-18T03:41:12.524Z,19.70
2018-12-18T03:43:41.021Z,21.95
2018-12-18T03:46:09.356Z,21.20
2018-12-18T03:48:37.745Z,20.80
2018-12-18T03:51:06.133Z,21.82
2018-12-18T03:53:34.562Z,22.07
2018-12-18T03:56:07.017Z,23.02
2018-12-18T03:58:35.386Z,23.77
2018-12-18T04:01:03.849Z,21.87
2018-12-18T04:03:32.279Z,23.45
2018-12-18T04:06:00.619Z,21.80
2018-12-18T04:08:29.072Z,22.62
2018-12-18T04:10:57.677Z,23.52
2018-12-18T04:13:26.400Z,24.47
2018-12-18T04:15:54.834Z,24.15
2018-12-18T04:18:23.448Z,23.92
2018-12-18T04:20:51.827Z,24.55
2018-12-18T04:23:20.167Z,24.27
2018-12-18T04:25:48.515Z,24.80
2018-12-18T04:28:17.016Z,24.55
2018-12-18T04:30:45.493Z,24.72
2018-12-18T04:33:13.849Z,26.07
2018-12-18T04:35:42.488Z,24.30
2018-12-18T04:38:10.897Z,24.57
2018-12-18T04:40:39.275Z,26.35
2018-12-18T04:43:07.727Z,26.62
2018-12-18T04:45:36.142Z,25.68
2018-12-18T04:48:04.494Z,27.22
2018-12-18T04:50:32.894Z,24.87
2018-12-18T04:53:02.003Z,24.82
2018-12-18T04:55:30.467Z,24.77
2018-12-18T04:57:58.888Z,24.72
2018-12-18T05:00:27.240Z,26.23
2018-12-18T05:02:55.607Z,25.45
2018-12-18T05:05:24.023Z,25.20
2018-12-18T05:07:52.416Z,26.27
2018-12-18T05:10:20.775Z,24.15
2018-12-18T05:12:49.155Z,24.35
2018-12-18T05:15:18.093Z,25.15
2018-12-18T05:17:46.541Z,24.70
2018-12-18T05:20:14.899Z,26.90
2018-12-18T05:22:43.298Z,24.10
2018-12-18T05:25:11.999Z,25.68
2018-12-18T05:27:40.435Z,23.87
2018-12-18T05:30:08.787Z,25.12
2018-12-18T05:32:37.449Z,23.30
2018-12-18T05:35:06.303Z,23.20
2018-12-18T05:37:34.665Z,23.95
2018-12-18T05:40:04.067Z,23.35
2018-12-18T05:42:32.559Z,25.37
2018-12-18T05:45:00.982Z,24.75
2018-12-18T05:47:30.305Z,24.10
2018-12-18T05:49:58.669Z,23.52
2018-12-18T05:52:27.109Z,26.48
2018-12-18T05:54:55.463Z,21.77
2018-12-18T05:57:24.780Z,22.85
2018-12-18T05:59:53.269Z,22.17
2018-12-18T06:02:22.256Z,19.55
2018-12-18T06:04:50.658Z,20.45
2018-12-18T06:07:19.014Z,22.75
2018-12-18T06:09:47.435Z,21.12
2018-12-18T06:12:15.808Z,19.25
2018-12-18T06:14:44.476Z,19.92
2018-12-18T06:17:12.885Z,20.40
2018-12-18T06:19:41.291Z,20.97
2018-12-18T06:22:09.680Z,21.27
2018-12-18T06:24:38.102Z,21.75
2018-12-18T06:27:06.456Z,21.48
2018-12-18T06:29:34.826Z,22.95
2018-12-18T06:32:03.338Z,19.60
2018-12-18T06:34:31.746Z,20.82
2018-12-18T06:37:00.145Z,20.45
2018-12-18T06:39:28.567Z,18.30
2018-12-18T06:41:56.896Z,19.80
2018-12-18T06:44:25.646Z,19.80
2018-12-18T06:46:54.795Z,20.55
2018-12-18T06:49:23.145Z,17.92
2018-12-18T06:51:51.616Z,16.55
2018-12-18T06:54:20.019Z,17.02
2018-12-18T06:56:48.422Z,16.57
2018-12-18T06:59:16.884Z,16.25
2018-12-18T07:01:45.303Z,15.95
2018-12-18T07:04:13.754Z,15.53
2018-12-18T07:06:42.153Z,14.70
2018-12-18T07:09:10.616Z,14.43
2018-12-18T07:11:39.775Z,14.85
2018-12-18T07:14:08.174Z,14.33
2018-12-18T07:16:36.592Z,13.48
2018-12-18T07:19:04.923Z,14.00
2018-12-18T07:21:33.311Z,14.40
2018-12-18T07:24:01.703Z,14.05
2018-12-18T07:26:34.456Z,16.17
2018-12-18T07:29:02.863Z,16.52
2018-12-18T07:31:31.365Z,17.12
2018-12-18T07:33:59.794Z,17.15
2018-12-18T07:36:28.409Z,16.55
2018-12-18T07:38:56.785Z,17.45
2018-12-18T07:41:25.179Z,18.05
2018-12-18T07:43:53.618Z,16.23
2018-12-18T07:46:21.985Z,16.57
2018-12-18T07:48:50.338Z,16.95
2018-12-18T07:51:18.775Z,16.62
2018-12-18T07:53:47.264Z,16.62
2018-12-18T07:56:15.617Z,16.15
2018-12-18T07:58:44.074Z,15.68
2018-12-18T08:01:12.433Z,14.30
2018-12-18T08:03:40.805Z,14.07
2018-12-18T08:06:09.177Z,16.35
2018-12-18T08:08:37.847Z,13.45
2018-12-18T08:11:06.396Z,13.45
2018-12-18T08:13:34.843Z,15.08
2018-12-18T08:16:03.220Z,14.18
2018-12-18T08:18:31.703Z,13.88
2018-12-18T08:21:00.054Z,14.30
2018-12-18T08:23:28.409Z,14.13
2018-12-18T08:25:56.868Z,16.07
2018-12-18T08:28:25.334Z,13.62
2018-12-18T08:30:53.708Z,14.03
2018-12-18T08:33:22.143Z,14.25
2018-12-18T08:35:50.529Z,14.28
2018-12-18T08:38:18.881Z,13.72
2018-12-18T08:40:47.305Z,15.18
2018-12-18T08:43:15.695Z,14.28
2018-12-18T08:45:44.365Z,14.65
2018-12-18T08:48:12.780Z,13.80
2018-12-18T08:50:41.108Z,14.75
2018-12-18T08:53:09.481Z,14.33
2018-12-18T08:55:37.927Z,12.60
2018-12-18T08:58:06.355Z,12.15
2018-12-18T09:00:34.812Z,12.55
2018-12-18T09:03:03.273Z,12.25
2018-12-18T09:05:32.664Z,13.20
2018-12-18T09:08:01.112Z,12.30
2018-12-18T09:10:29.980Z,12.98
2018-12-18T09:12:58.301Z,14.38
2018-12-18T09:16:00.508Z,14.60
2018-12-18T09:18:28.883Z,13.45
2018-12-18T09:20:57.372Z,13.90
2018-12-18T09:23:25.781Z,11.95
2018-12-18T09:25:54.193Z,12.90
2018-12-18T09:28:22.765Z,11.78
2018-12-18T09:30:51.165Z,12.33
2018-12-18T09:33:19.504Z,14.75
2018-12-18T09:35:49.768Z,11.22
2018-12-18T09:38:23.603Z,10.65
2018-12-18T09:40:57.214Z,10.90
2018-12-18T09:43:30.738Z,11.10
2018-12-18T09:45:59.054Z,10.32
2018-12-18T09:48:27.437Z,10.45
2018-12-18T09:50:55.923Z,11.57
2018-12-18T09:53:24.309Z,11.18
2018-12-18T09:55:53.036Z,10.03
2018-12-18T09:58:21.436Z,9.48
2018-12-18T10:00:50.130Z,7.90
2018-12-18T10:03:18.532Z,8.28
2018-12-18T10:05:46.962Z,9.25
2018-12-18T10:08:15.395Z,8.20
2018-12-18T10:10:43.824Z,9.23
2018-12-18T10:13:12.329Z,8.18
2018-12-18T10:15:40.747Z,8.95
2018-12-18T10:18:09.130Z,9.13
2018-12-18T10:20:38.149Z,8.40
2018-12-18T10:23:06.515Z,8.65
2018-12-18T10:25:34.905Z,7.37
2018-12-18T10:28:03.354Z,7.08
2018-12-18T10:30:31.732Z,7.70
2018-12-18T10:33:00.245Z,7.55
2018-12-18T10:35:28.759Z,7.28
2018-12-18T10:37:57.157Z,6.83
2018-12-18T10:40:25.589Z,6.67
2018-12-18T10:42:53.986Z,6.80
2018-12-18T10:45:26.566Z,7.25
2018-12-18T10:47:54.903Z,7.35
2018-12-18T10:50:23.461Z,5.55
2018-12-18T10:52:51.838Z,6.30
2018-12-18T10:55:20.224Z,6.50
2018-12-18T10:57:48.838Z,7.55
2018-12-18T11:00:22.631Z,9.03
2018-12-18T11:02:50.961Z,8.08
2018-12-18T11:05:19.370Z,7.17
2018-12-18T11:07:47.775Z,8.93
2018-12-18T11:10:16.184Z,9.10
2018-12-18T11:12:48.845Z,10.43
2018-12-18T11:15:17.240Z,9.40
2018-12-18T11:17:45.581Z,9.68
2018-12-18T11:20:13.947Z,8.50
2018-12-18T11:22:42.328Z,9.48
2018-12-18T11:25:10.686Z,9.38
2018-12-18T11:27:39.060Z,8.70
2018-12-18T11:30:08.183Z,9.63
2018-12-18T11:32:36.562Z,8.50
2018-12-18T11:35:05.348Z,10.35
2018-12-18T11:37:33.680Z,7.78
2018-12-18T11:40:02.032Z,10.50
2018-12-18T11:42:30.521Z,10.43
2018-12-18T11:44:58.886Z,9.43
2018-12-18T11:47:27.898Z,8.35
2018-12-18T11:49:56.248Z,8.85
2018-12-18T11:52:24.613Z,7.35
2018-12-18T11:54:53.013Z,7.50
2018-12-18T11:57:21.483Z,6.50
2018-12-18T11:59:49.841Z,6.45
2018-12-18T12:02:18.225Z,6.62
2018-12-18T12:04:46.579Z,6.97
2018-12-18T12:07:14.954Z,5.95
2018-12-18T12:09:43.343Z,5.33
2018-12-18T12:12:11.751Z,5.05
2018-12-18T12:14:40.920Z,5.45
2018-12-18T12:17:09.312Z,5.53
2018-12-18T12:19:37.684Z,5.95
2018-12-18T12:22:06.565Z,5.58
2018-12-18T12:24:34.924Z,5.40
2018-12-18T12:27:08.746Z,5.65
2018-12-18T12:29:37.064Z,5.70
2018-12-18T12:32:05.488Z,4.55
2018-12-18T12:34:33.994Z,4.85
2018-12-18T12:37:02.363Z,5.42
2018-12-18T12:39:30.808Z,5.30
2018-12-18T12:41:59.199Z,4.90
2018-12-18T12:44:27.609Z,4.17
2018-12-18T12:46:55.975Z,4.90
2018-12-18T12:49:28.664Z,5.67
2018-12-18T12:51:56.972Z,4.50
2018-12-18T12:54:25.359Z,4.60
2018-12-18T12:56:53.973Z,5.30
2018-12-18T12:59:22.365Z,6.00
2018-12-18T13:01:50.705Z,5.60
2018-12-18T13:04:19.170Z,4.28
2018-12-18T13:06:47.662Z,4.95
2018-12-18T13:09:16.044Z,4.85
2018-12-18T13:11:44.577Z,4.10
2018-12-18T13:14:13.028Z,4.10
2018-12-18T13:16:41.352Z,4.30
2018-12-18T13:19:09.697Z,4.90
2018-12-18T13:21:38.150Z,5.37
2018-12-18T13:24:06.742Z,5.03
2018-12-18T13:26:35.220Z,5.00
2018-12-18T13:29:03.708Z,5.60
2018-12-18T13:31:32.165Z,5.50
2018-12-18T13:34:01.983Z,5.92
2018-12-18T13:36:30.580Z,4.83
2018-12-18T13:38:59.024Z,5.15
2018-12-18T13:41:27.441Z,4.70
2018-12-18T13:43:55.780Z,4.45
2018-12-18T13:46:24.183Z,5.78
2018-12-18T13:48:52.516Z,4.42
2018-12-18T13:51:20.907Z,5.40
2018-12-18T13:53:49.283Z,5.10
2018-12-18T13:56:17.667Z,5.65
2018-12-18T13:58:46.062Z,5.15
2018-12-18T14:01:14.430Z,4.60
2018-12-18T14:03:43.508Z,4.33
2018-12-18T14:06:11.907Z,5.28
2018-12-18T14:08:40.289Z,5.45
2018-12-18T14:11:08.648Z,4.65
2018-12-18T14:13:36.992Z,5.22
2018-12-18T14:16:05.532Z,4.62
2018-12-18T14:18:34.012Z,4.85
2018-12-18T14:21:02.461Z,4.40
2018-12-18T14:23:30.805Z,4.70
2018-12-18T14:25:59.189Z,6.50
2018-12-18T14:28:27.625Z,3.87
2018-12-18T14:30:55.992Z,4.25
2018-12-18T14:33:24.336Z,4.40
2018-12-18T14:35:52.763Z,3.83
2018-12-18T14:38:21.180Z,3.83
2018-12-18T14:40:49.652Z,4.45
2018-12-18T14:43:18.004Z,4.22
2018-12-18T14:45:47.036Z,3.80
2018-12-18T14:48:15.396Z,3.80
2018-12-18T14:50:43.753Z,3.75
2018-12-18T14:53:12.084Z,3.80
2018-12-18T14:55:40.544Z,3.80
2018-12-18T14:58:08.924Z,4.08
2018-12-18T15:00:37.534Z,3.55
2018-12-18T15:03:05.892Z,3.85
2018-12-18T15:05:34.321Z,4.17
2018-12-18T15:08:02.691Z,4.90
2018-12-18T15:10:31.065Z,4.20
2018-12-18T15:12:59.422Z,3.77
2018-12-18T15:15:27.797Z,4.00
2018-12-18T15:17:56.118Z,4.45
2018-12-18T15:20:24.607Z,4.92
2018-12-18T15:22:53.000Z,4.00
2018-12-18T15:25:21.403Z,5.10
2018-12-18T15:27:49.917Z,4.12
2018-12-18T15:30:18.249Z,4.95
2018-12-18T15:32:46.716Z,4.62
2018-12-18T15:35:15.056Z,5.35
2018-12-18T15:37:43.532Z,5.92
2018-12-18T15:40:11.994Z,4.65
2018-12-18T15:42:40.392Z,5.33
2018-12-18T15:45:08.808Z,4.78
2018-12-18T15:47:37.199Z,5.12
2018-12-18T15:50:08.192Z,5.22
2018-12-18T15:52:37.933Z,5.60
2018-12-18T15:55:06.456Z,5.55
2018-12-18T15:57:34.910Z,5.55
2018-12-18T16:00:03.303Z,4.80
2018-12-18T16:02:31.688Z,5.95
2018-12-18T16:05:00.939Z,5.35
2018-12-18T16:07:30.448Z,5.70
2018-12-18T16:09:58.796Z,5.35
2018-12-18T16:12:27.173Z,5.53
2018-12-18T16:14:55.513Z,5.17
2018-12-18T16:17:24.501Z,4.85
2018-12-18T16:19:53.647Z,4.85
2018-12-18T16:22:22.031Z,5.62
2018-12-18T16:24:50.363Z,5.47
2018-12-18T16:27:18.805Z,5.17
2018-12-18T16:29:47.368Z,5.00
2018-12-18T16:32:15.794Z,5.70
2018-12-18T16:34:44.123Z,5.10
2018-12-18T16:37:12.485Z,5.75
2018-12-18T16:39:40.930Z,5.28
2018-12-18T16:42:09.517Z,5.30
2018-12-18T16:44:37.877Z,6.00
2018-12-18T16:47:06.253Z,6.33
2018-12-18T16:49:34.751Z,5.10
2018-12-18T16:52:03.218Z,5.30
2018-12-18T16:54:31.991Z,5.65
2018-12-18T16:57:00.483Z,5.42
2018-12-18T16:59:28.843Z,6.22
2018-12-18T17:01:57.299Z,6.08
2018-12-18T17:04:25.680Z,5.15
2018-12-18T17:06:54.183Z,6.83
2018-12-18T17:09:22.563Z,5.85
2018-12-18T17:11:50.872Z,6.65
2018-12-18T17:14:19.226Z,6.55
2018-12-18T17:16:47.691Z,6.08
2018-12-18T17:19:16.259Z,7.00
2018-12-18T17:21:44.679Z,6.97
2018-12-18T17:24:13.078Z,6.87
2018-12-18T17:26:41.415Z,6.00
2018-12-18T17:29:09.786Z,6.50
2018-12-18T17:31:38.445Z,7.30
2018-12-18T17:34:06.847Z,6.70
2018-12-18T17:36:35.173Z,6.75
2018-12-18T17:39:05.295Z,6.90
2018-12-18T17:41:33.606Z,6.87
2018-12-18T17:44:02.187Z,6.53
2018-12-18T17:46:30.664Z,6.53
2018-12-18T17:48:59.128Z,7.78
2018-12-18T17:51:27.539Z,6.35
2018-12-18T17:53:55.905Z,5.62
2018-12-18T17:56:24.284Z,5.45
2018-12-18T17:58:52.702Z,6.33
2018-12-18T18:01:21.316Z,5.75
2018-12-18T18:03:49.739Z,6.85
2018-12-18T18:06:18.152Z,6.05
2018-12-18T18:08:46.556Z,6.28
2018-12-18T18:11:14.931Z,5.80
2018-12-18T18:13:43.279Z,4.85
2018-12-18T18:16:11.631Z,6.35
2018-12-18T18:18:40.103Z,6.15
2018-12-18T18:21:08.481Z,6.15
2018-12-18T18:23:36.868Z,5.53
2018-12-18T18:26:06.105Z,6.75
2018-12-18T18:28:34.438Z,5.40
2018-12-18T18:31:02.820Z,6.25
2018-12-18T18:33:31.295Z,5.40
2018-12-18T18:35:59.645Z,6.10
2018-12-18T18:38:28.067Z,6.30
2018-12-18T18:40:56.607Z,6.30
2018-12-18T18:43:25.003Z,6.80
2018-12-18T18:45:53.465Z,5.80
2018-12-18T18:48:21.825Z,6.12
2018-12-18T18:50:50.168Z,5.67
2018-12-18T18:53:18.543Z,5.55
2018-12-18T18:55:47.019Z,8.85
2018-12-18T18:58:15.454Z,5.55
2018-12-18T19:00:43.823Z,6.40
2018-12-18T19:03:12.235Z,6.00
2018-12-18T19:05:40.627Z,5.90
2018-12-18T19:08:09.017Z,5.60
2018-12-18T19:10:37.420Z,5.62
2018-12-18T19:13:05.823Z,6.30
2018-12-18T19:15:34.328Z,6.80
2018-12-18T19:18:02.816Z,6.03
2018-12-18T19:20:31.326Z,6.47
2018-12-18T19:22:59.801Z,6.80
2018-12-18T19:25:28.241Z,6.20
2018-12-18T19:27:56.600Z,6.40
2018-12-18T19:30:25.128Z,7.08
2018-12-18T19:32:53.690Z,7.37
2018-12-18T19:35:22.607Z,6.70
2018-12-18T19:37:51.637Z,4.90
2018-12-18T19:40:20.284Z,6.25
2018-12-18T19:42:48.773Z,5.85
2018-12-18T19:45:17.258Z,6.50
2018-12-18T19:47:45.731Z,5.95
2018-12-18T19:50:14.835Z,6.80
2018-12-18T19:52:43.211Z,5.60
2018-12-18T19:55:11.965Z,6.85
2018-12-18T19:57:40.515Z,7.40
2018-12-18T20:00:09.573Z,6.87
2018-12-18T20:02:37.999Z,6.70
2018-12-18T20:05:06.867Z,7.00
2018-12-18T20:07:35.299Z,7.87
2018-12-18T20:10:04.256Z,7.20
2018-12-18T20:12:32.681Z,7.58
2018-12-18T20:15:01.116Z,8.50
2018-12-18T20:17:29.496Z,8.50
2018-12-18T20:19:58.133Z,8.13
2018-12-18T20:22:26.577Z,7.45
2018-12-18T20:24:54.958Z,8.10
2018-12-18T20:27:23.448Z,9.33
2018-12-18T20:29:52.203Z,8.75
2018-12-18T20:32:20.639Z,9.18
2018-12-18T20:34:49.052Z,9.68
2018-12-18T20:37:18.425Z,8.78
2018-12-18T20:39:46.927Z,11.63
2018-12-18T20:42:15.531Z,10.08
2018-12-18T20:44:44.077Z,9.93
2018-12-18T20:47:13.029Z,10.30
2018-12-18T20:49:41.481Z,10.72
2018-12-18T20:52:10.040Z,12.05
2018-12-18T20:54:42.290Z,12.88
2018-12-18T20:57:10.777Z,12.85
2018-12-18T20:59:39.485Z,12.60
2018-12-18T21:02:08.778Z,11.88
2018-12-18T21:04:38.019Z,12.65
2018-12-18T21:07:06.729Z,13.00
2018-12-18T21:09:35.211Z,15.50
2018-12-18T21:12:03.651Z,14.05
2018-12-18T21:14:32.190Z,13.90
2018-12-18T21:17:00.939Z,13.30
2018-12-18T21:19:29.408Z,14.55
2018-12-18T21:21:57.821Z,15.60
2018-12-18T21:24:26.200Z,14.35
2018-12-18T21:26:54.792Z,14.25
2018-12-18T21:29:23.269Z,16.23
2018-12-18T21:31:51.712Z,13.40
2018-12-18T21:34:20.139Z,14.60
2018-12-18T21:36:48.479Z,15.75
2018-12-18T21:39:16.831Z,17.05
2018-12-18T21:41:45.203Z,16.50
2018-12-18T21:44:13.561Z,17.42
2018-12-18T21:46:42.044Z,16.75
2018-12-18T21:49:10.398Z,15.45
2018-12-18T21:51:38.754Z,16.97
2018-12-18T21:54:07.127Z,17.98
2018-12-18T21:56:35.496Z,17.57
2018-12-18T21:59:03.821Z,19.60
2018-12-18T22:01:32.375Z,17.67
2018-12-18T22:04:00.897Z,16.85
2018-12-18T22:06:29.285Z,16.87
2018-12-18T22:08:57.684Z,18.23
2018-12-18T22:11:26.492Z,18.45
2018-12-18T22:13:55.143Z,16.77
2018-12-18T22:16:23.830Z,17.92
2018-12-18T22:18:52.292Z,18.80
2018-12-18T22:21:20.662Z,19.80
2018-12-18T22:23:49.080Z,19.90
2018-12-18T22:26:17.798Z,16.77
2018-12-18T22:28:46.275Z,18.75
2018-12-18T22:31:14.656Z,18.32
2018-12-18T22:33:43.060Z,18.17
2018-12-18T22:36:11.425Z,17.42
2018-12-18T22:38:43.628Z,16.75
2018-12-18T22:41:10.193Z,17.40
2018-12-18T22:43:38.587Z,18.23
2018-12-18T22:46:06.940Z,16.87
2018-12-18T22:48:35.296Z,17.98
2018-12-18T22:51:03.697Z,17.85
2018-12-18T22:53:32.052Z,18.02
2018-12-18T22:56:00.456Z,16.75
2018-12-18T22:58:28.871Z,17.17
2018-12-18T23:01:04.977Z,17.52
2018-12-18T23:03:33.344Z,17.70
2018-12-18T23:06:01.753Z,17.70
2018-12-18T23:08:30.784Z,16.25
2018-12-18T23:10:59.641Z,16.70
2018-12-18T23:13:28.039Z,19.15
2018-12-18T23:15:56.435Z,17.07
2018-12-18T23:18:24.923Z,17.15
2018-12-18T23:20:53.279Z,17.37
2018-12-18T23:23:21.652Z,17.60
2018-12-18T23:25:50.065Z,17.48
2018-12-18T23:28:18.413Z,21.17
2018-12-18T23:30:46.819Z,18.35
2018-12-18T23:33:15.172Z,16.77
2018-12-18T23:35:43.565Z,18.42
2018-12-18T23:38:11.941Z,19.17
2018-12-18T23:40:40.342Z,17.75
2018-12-18T23:43:08.771Z,18.35
2018-12-18T23:45:37.165Z,17.30
2018-12-18T23:48:05.650Z,17.55
2018-12-18T23:50:38.625Z,17.85
2018-12-18T23:53:06.986Z,17.37
2018-12-18T23:55:36.292Z,18.20
2018-12-18T23:58:04.628Z,17.35
